createdAt,value
2019-01-19T00:01:31.799Z,0.80
2019-01-19T00:04:21.299Z,0.80
2019-01-19T00:07:08.206Z,0.80
2019-01-19T00:09:54.789Z,0.80
2019-01-19T00:12:49.128Z,0.70
2019-01-19T00:15:20.733Z,0.70
2019-01-19T00:18:01.223Z,0.70
2019-01-19T00:20:41.543Z,0.60
2019-01-19T00:23:25.203Z,0.60
2019-01-19T00:26:05.471Z,0.50
2019-01-19T00:28:49.376Z,0.50
2019-01-19T00:31:31.197Z,0.50
2019-01-19T00:34:05.531Z,0.40
2019-01-19T00:36:43.228Z,0.40
2019-01-19T00:39:14.969Z,0.40
2019-01-19T00:42:03.464Z,0.40
2019-01-19T00:44:35.009Z,0.30
2019-01-19T00:47:06.668Z,0.30
2019-01-19T00:49:36.115Z,0.30
2019-01-19T00:52:38.250Z,0.30
2019-01-19T00:55:20.088Z,0.30
2019-01-19T00:58:09.969Z,0.30
2019-01-19T01:00:42.809Z,0.30
2019-01-19T01:03:26.628Z,0.20
2019-01-19T01:06:16.782Z,0.20
2019-01-19T01:09:00.248Z,0.20
2019-01-19T01:11:31.907Z,0.10
2019-01-19T01:14:03.561Z,0.10
2019-01-19T01:16:48.350Z,0.20
2019-01-19T01:19:31.657Z,0.10
2019-01-19T01:22:05.934Z,0.10
2019-01-19T01:24:43.556Z,0.10
2019-01-19T01:27:17.950Z,0.00
2019-01-19T01:30:01.710Z,-0.10
2019-01-19T01:32:33.543Z,-0.10
2019-01-19T01:35:21.650Z,-0.10
2019-01-19T01:38:02.233Z,-0.20
2019-01-19T01:40:46.096Z,-0.20
2019-01-19T01:43:23.575Z,-0.40
2019-01-19T01:46:10.373Z,-0.40
2019-01-19T01:48:44.893Z,-0.50
2019-01-19T01:51:42.255Z,-0.50
2019-01-19T01:54:37.896Z,-0.40
2019-01-19T01:57:09.314Z,-0.40
2019-01-19T01:59:55.968Z,-0.40
2019-01-19T02:02:43.847Z,-0.40
2019-01-19T02:05:30.370Z,-0.40
2019-01-19T02:08:04.841Z,-0.60
2019-01-19T02:10:59.242Z,-0.60
2019-01-19T02:13:50.292Z,-0.60
2019-01-19T02:16:42.953Z,-0.80
2019-01-19T02:19:32.461Z,-0.90
2019-01-19T02:22:19.540Z,-0.90
2019-01-19T02:25:03.302Z,-0.80
2019-01-19T02:27:49.884Z,-0.90
2019-01-19T02:30:44.250Z,-0.80
2019-01-19T02:33:34.038Z,-0.80
2019-01-19T02:36:17.172Z,-0.70
2019-01-19T02:39:12.418Z,-0.80
2019-01-19T02:41:58.986Z,-0.80
2019-01-19T02:44:33.322Z,-0.80
2019-01-19T02:47:27.449Z,-0.80
2019-01-19T02:50:05.108Z,-0.80
2019-01-19T02:52:52.941Z,-0.70
2019-01-19T02:55:37.254Z,-0.80
2019-01-19T02:58:20.708Z,-0.80
2019-01-19T03:01:13.402Z,-0.80
2019-01-19T03:04:01.562Z,-1.00
2019-01-19T03:06:57.469Z,-1.10
2019-01-19T03:09:53.341Z,-1.00
2019-01-19T03:12:36.949Z,-0.90
2019-01-19T03:15:16.888Z,-0.90
2019-01-19T03:18:12.494Z,-0.80
2019-01-19T03:20:52.668Z,-0.80
2019-01-19T03:23:41.035Z,-0.80
2019-01-19T03:26:32.305Z,-0.70
2019-01-19T03:29:09.643Z,-0.70
2019-01-19T03:31:59.454Z,-0.60
2019-01-19T03:34:39.959Z,-0.60
2019-01-19T03:37:23.607Z,-0.60
2019-01-19T03:40:01.276Z,-0.50
2019-01-19T03:42:45.101Z,-0.50
2019-01-19T03:45:33.395Z,-0.50
2019-01-19T03:48:13.789Z,-0.50
2019-01-19T03:51:18.614Z,-0.50
2019-01-19T03:53:59.461Z,-0.50
2019-01-19T03:56:40.627Z,-0.60
2019-01-19T03:59:35.648Z,-0.60
2019-01-19T04:02:16.034Z,-0.60
2019-01-19T04:04:56.638Z,-0.80
2019-01-19T04:07:28.231Z,-0.80
2019-01-19T04:10:02.774Z,-0.70
2019-01-19T04:12:37.095Z,-0.60
2019-01-19T04:15:43.714Z,-0.50
2019-01-19T04:18:15.370Z,-0.40
2019-01-19T04:20:59.022Z,-0.40
2019-01-19T04:23:27.364Z,-0.40
2019-01-19T04:25:58.895Z,-0.40
2019-01-19T04:28:27.536Z,-0.30
2019-01-19T04:30:55.945Z,-0.30
2019-01-19T04:33:24.370Z,-0.20
2019-01-19T04:35:52.882Z,-0.20
2019-01-19T04:38:21.277Z,-0.10
2019-01-19T04:40:51.471Z,-0.10
2019-01-19T04:43:19.977Z,-0.10
2019-01-19T04:45:48.439Z,-0.10
2019-01-19T04:48:18.486Z,-0.10
2019-01-19T04:50:46.847Z,-0.10
2019-01-19T04:53:15.233Z,-0.20
2019-01-19T04:55:43.515Z,-0.20
2019-01-19T04:58:12.134Z,-0.20
2019-01-19T05:00:40.418Z,-0.20
2019-01-19T05:03:08.743Z,-0.30
2019-01-19T05:05:37.207Z,-0.40
2019-01-19T05:08:05.539Z,-0.40
2019-01-19T05:10:34.408Z,-0.50
2019-01-19T05:13:02.926Z,-0.60
2019-01-19T05:15:31.236Z,-0.70
2019-01-19T05:17:59.910Z,-0.80
2019-01-19T05:20:28.326Z,-0.80
2019-01-19T05:22:56.820Z,-0.70
2019-01-19T05:25:25.305Z,-0.80
2019-01-19T05:27:53.696Z,-0.80
2019-01-19T05:30:22.202Z,-0.80
2019-01-19T05:32:50.911Z,-0.80
2019-01-19T05:35:19.306Z,-0.70
2019-01-19T05:37:47.677Z,-0.70
2019-01-19T05:40:16.178Z,-0.60
2019-01-19T05:42:44.699Z,-0.80
2019-01-19T05:45:14.167Z,-0.80
2019-01-19T05:47:42.808Z,-0.70
2019-01-19T05:50:19.609Z,-0.70
2019-01-19T05:52:48.128Z,-0.80
2019-01-19T05:55:16.552Z,-0.80
2019-01-19T05:57:45.017Z,-0.80
2019-01-19T06:00:17.596Z,-0.80
2019-01-19T06:02:46.151Z,-0.80
2019-01-19T06:05:14.546Z,-0.80
2019-01-19T06:07:42.929Z,-0.70
2019-01-19T06:10:13.989Z,-0.70
2019-01-19T06:12:42.334Z,-0.70
2019-01-19T06:15:15.296Z,-0.70
2019-01-19T06:17:43.618Z,-0.70
2019-01-19T06:20:16.710Z,-0.70
2019-01-19T06:22:45.032Z,-0.70
2019-01-19T06:25:14.976Z,-0.70
2019-01-19T06:27:43.587Z,-0.90
2019-01-19T06:30:15.335Z,-0.90
2019-01-19T06:32:43.809Z,-0.80
2019-01-19T06:35:12.263Z,-0.70
2019-01-19T06:37:40.993Z,-0.70
2019-01-19T06:40:12.089Z,-0.60
2019-01-19T06:42:40.573Z,-0.50
2019-01-19T06:45:14.604Z,-0.50
2019-01-19T06:47:43.025Z,-0.40
2019-01-19T06:50:13.983Z,-0.40
2019-01-19T06:52:42.447Z,-0.40
2019-01-19T06:55:13.385Z,-0.30
2019-01-19T06:57:41.910Z,-0.30
2019-01-19T07:00:13.108Z,-0.30
2019-01-19T07:02:43.119Z,-0.30
2019-01-19T07:05:11.536Z,-0.30
2019-01-19T07:07:39.879Z,-0.20
2019-01-19T07:10:17.205Z,-0.20
2019-01-19T07:12:45.789Z,-0.20
2019-01-19T07:15:16.127Z,-0.20
2019-01-19T07:17:44.603Z,-0.20
2019-01-19T07:20:15.520Z,-0.20
2019-01-19T07:22:43.924Z,-0.20
2019-01-19T07:25:12.657Z,-0.20
2019-01-19T07:27:41.278Z,-0.20
2019-01-19T07:30:12.779Z,-0.20
2019-01-19T07:32:41.203Z,-0.20
2019-01-19T07:35:09.544Z,-0.20
2019-01-19T07:37:38.094Z,-0.20
2019-01-19T07:40:09.415Z,-0.20
2019-01-19T07:42:38.774Z,-0.20
2019-01-19T07:45:09.153Z,-0.20
2019-01-19T07:47:38.025Z,-0.20
2019-01-19T07:50:12.050Z,-0.10
2019-01-19T07:52:42.307Z,-0.10
2019-01-19T07:55:12.976Z,0.10
2019-01-19T07:57:41.354Z,0.20
2019-01-19T08:00:22.020Z,0.10
2019-01-19T08:02:50.544Z,0.10
2019-01-19T08:05:18.967Z,0.10
2019-01-19T08:07:47.401Z,0.10
2019-01-19T08:10:17.786Z,0.10
2019-01-19T08:12:46.393Z,0.20
2019-01-19T08:15:20.552Z,0.20
2019-01-19T08:17:48.833Z,0.20
2019-01-19T08:20:17.180Z,0.10
2019-01-19T08:22:45.697Z,0.20
2019-01-19T08:25:14.454Z,0.20
2019-01-19T08:27:43.049Z,0.20
2019-01-19T08:30:19.961Z,0.20
2019-01-19T08:32:48.271Z,0.20
2019-01-19T08:35:18.186Z,0.20
2019-01-19T08:37:47.558Z,0.20
2019-01-19T08:40:18.679Z,0.20
2019-01-19T08:42:48.626Z,0.30
2019-01-19T08:45:18.068Z,0.30
2019-01-19T08:47:46.652Z,0.30
2019-01-19T08:50:15.003Z,0.30
2019-01-19T08:52:43.341Z,0.20
2019-01-19T08:55:11.874Z,0.20
2019-01-19T08:57:40.396Z,0.30
2019-01-19T09:00:28.180Z,0.40
2019-01-19T09:02:56.705Z,0.60
2019-01-19T09:05:25.123Z,0.60
2019-01-19T09:07:53.567Z,0.70
2019-01-19T09:10:21.944Z,0.70
2019-01-19T09:12:50.288Z,0.70
2019-01-19T09:15:23.655Z,0.70
2019-01-19T09:17:52.039Z,0.80
2019-01-19T09:20:21.169Z,0.80
2019-01-19T09:23:02.815Z,0.90
2019-01-19T09:25:31.182Z,0.90
2019-01-19T09:28:01.337Z,0.90
2019-01-19T09:30:29.753Z,1.00
2019-01-19T09:32:58.574Z,1.00
2019-01-19T09:35:26.966Z,1.10
2019-01-19T09:37:55.388Z,1.10
2019-01-19T09:40:23.877Z,1.10
2019-01-19T09:42:52.691Z,1.10
2019-01-19T09:45:21.365Z,1.10
2019-01-19T09:47:50.020Z,1.10
2019-01-19T09:50:20.160Z,1.10
2019-01-19T09:52:48.454Z,1.10
2019-01-19T09:55:17.038Z,1.10
2019-01-19T09:57:45.468Z,1.10
2019-01-19T10:00:19.166Z,1.20
2019-01-19T10:02:47.471Z,1.10
2019-01-19T10:05:18.852Z,1.10
2019-01-19T10:07:48.779Z,1.20
2019-01-19T10:10:17.390Z,1.20
2019-01-19T10:12:45.791Z,1.20
2019-01-19T10:15:18.728Z,1.30
2019-01-19T10:17:47.126Z,1.30
2019-01-19T10:20:27.529Z,1.20
2019-01-19T10:23:00.474Z,1.20
2019-01-19T10:25:28.937Z,1.20
2019-01-19T10:27:57.312Z,1.20
2019-01-19T10:30:27.656Z,1.10
2019-01-19T10:32:56.039Z,1.20
2019-01-19T10:35:24.757Z,1.30
2019-01-19T10:37:56.510Z,1.20
2019-01-19T10:40:23.566Z,1.30
2019-01-19T10:42:52.592Z,1.30
2019-01-19T10:45:28.992Z,1.20
2019-01-19T10:47:57.587Z,1.10
2019-01-19T10:50:26.299Z,1.00
2019-01-19T10:52:54.990Z,1.00
2019-01-19T10:55:24.549Z,1.00
2019-01-19T10:57:53.223Z,1.00
2019-01-19T11:00:24.731Z,1.00
2019-01-19T11:02:53.772Z,1.10
2019-01-19T11:05:22.277Z,1.10
2019-01-19T11:07:50.798Z,1.20
2019-01-19T11:10:28.115Z,1.20
2019-01-19T11:12:58.263Z,1.00
2019-01-19T11:15:26.914Z,1.10
2019-01-19T11:17:55.401Z,1.30
2019-01-19T11:20:31.136Z,1.40
2019-01-19T11:23:00.941Z,1.50
2019-01-19T11:25:29.846Z,1.60
2019-01-19T11:27:58.467Z,1.60
2019-01-19T11:30:31.581Z,1.70
2019-01-19T11:33:00.249Z,1.70
2019-01-19T11:35:29.269Z,1.80
2019-01-19T11:37:57.664Z,1.90
2019-01-19T11:40:37.009Z,2.00
2019-01-19T11:43:07.150Z,2.00
2019-01-19T11:45:35.526Z,2.10
2019-01-19T11:48:03.926Z,2.10
2019-01-19T11:50:32.421Z,2.10
2019-01-19T11:53:00.849Z,2.00
2019-01-19T11:55:29.431Z,2.00
2019-01-19T11:58:04.652Z,1.90
2019-01-19T12:00:35.386Z,2.00
2019-01-19T12:03:04.160Z,2.20
2019-01-19T12:05:32.737Z,2.40
2019-01-19T12:08:01.126Z,2.50
2019-01-19T12:10:31.232Z,2.70
2019-01-19T12:12:59.664Z,2.80
2019-01-19T12:15:28.318Z,2.90
2019-01-19T12:17:57.166Z,3.00
2019-01-19T12:20:31.015Z,3.00
2019-01-19T12:22:59.373Z,3.10
2019-01-19T12:25:28.279Z,3.40
2019-01-19T12:27:56.688Z,3.70
2019-01-19T12:30:30.151Z,3.90
2019-01-19T12:32:58.510Z,4.20
2019-01-19T12:35:27.055Z,4.70
2019-01-19T12:37:55.808Z,5.10
2019-01-19T12:40:26.760Z,5.20
2019-01-19T12:43:00.939Z,5.20
2019-01-19T12:45:41.364Z,5.30
2019-01-19T12:48:11.738Z,5.70
2019-01-19T12:50:40.190Z,6.20
2019-01-19T12:53:08.854Z,6.20
2019-01-19T12:55:37.266Z,6.50
2019-01-19T12:58:06.831Z,6.90
2019-01-19T13:00:35.576Z,7.10
2019-01-19T13:03:04.485Z,7.20
2019-01-19T13:05:45.333Z,7.40
2019-01-19T13:08:34.144Z,7.50
2019-01-19T13:11:06.483Z,7.00
2019-01-19T13:13:39.475Z,6.50
2019-01-19T13:16:44.923Z,5.70
2019-01-19T13:19:25.706Z,5.20
2019-01-19T13:22:19.807Z,4.90
2019-01-19T13:25:03.374Z,4.80
2019-01-19T13:27:59.608Z,4.90
2019-01-19T13:30:37.262Z,4.70
2019-01-19T13:33:18.209Z,4.70
2019-01-19T13:35:52.692Z,4.50
2019-01-19T13:38:30.068Z,4.20
2019-01-19T13:41:25.848Z,4.20
2019-01-19T13:44:00.317Z,4.30
2019-01-19T13:46:37.674Z,4.20
2019-01-19T13:49:26.962Z,4.20
2019-01-19T13:52:19.076Z,4.10
2019-01-19T13:55:16.591Z,4.00
2019-01-19T13:58:03.492Z,3.90
2019-01-19T14:00:36.291Z,3.90
2019-01-19T14:03:07.062Z,3.80
2019-01-19T14:05:41.872Z,3.90
2019-01-19T14:08:30.009Z,4.00
2019-01-19T14:11:22.827Z,4.10
2019-01-19T14:14:12.377Z,4.00
2019-01-19T14:17:10.054Z,4.00
2019-01-19T14:19:47.666Z,3.90
2019-01-19T14:22:24.960Z,3.90
2019-01-19T14:25:19.457Z,3.90
2019-01-19T14:28:09.226Z,3.80
2019-01-19T14:30:55.982Z,3.60
2019-01-19T14:33:27.680Z,3.40
2019-01-19T14:35:59.370Z,3.20
2019-01-19T14:38:46.270Z,3.20
2019-01-19T14:41:18.014Z,3.10
2019-01-19T14:43:55.277Z,3.10
2019-01-19T14:46:29.585Z,3.00
2019-01-19T14:49:10.433Z,3.00
2019-01-19T14:51:58.770Z,2.90
2019-01-19T14:54:32.962Z,2.90
2019-01-19T14:57:19.683Z,2.80
2019-01-19T14:59:57.160Z,2.80
2019-01-19T15:02:50.468Z,2.80
2019-01-19T15:05:31.062Z,2.70
2019-01-19T15:08:21.115Z,2.70
2019-01-19T15:11:04.888Z,2.60
2019-01-19T15:13:43.067Z,2.60
2019-01-19T15:16:17.408Z,2.50
2019-01-19T15:19:06.317Z,2.50
2019-01-19T15:21:50.613Z,2.50
2019-01-19T15:24:22.653Z,2.40
2019-01-19T15:27:21.578Z,2.30
2019-01-19T15:30:13.855Z,2.30
2019-01-19T15:33:02.319Z,2.30
2019-01-19T15:35:53.200Z,2.30
2019-01-19T15:38:36.753Z,2.20
2019-01-19T15:41:14.132Z,2.20
2019-01-19T15:44:13.403Z,2.10
2019-01-19T15:46:50.758Z,2.10
2019-01-19T15:49:34.454Z,2.10
2019-01-19T15:52:20.903Z,2.00
2019-01-19T15:54:55.661Z,2.00
2019-01-19T15:57:45.274Z,1.90
2019-01-19T16:00:38.084Z,1.90
2019-01-19T16:03:12.277Z,1.80
2019-01-19T16:06:02.428Z,1.70
2019-01-19T16:08:41.764Z,1.70
2019-01-19T16:11:37.495Z,1.70
2019-01-19T16:14:15.048Z,1.70
2019-01-19T16:16:49.703Z,1.70
2019-01-19T16:19:30.557Z,1.70
2019-01-19T16:22:18.783Z,1.60
2019-01-19T16:25:09.919Z,1.60
2019-01-19T16:27:50.440Z,1.50
2019-01-19T16:30:28.377Z,1.50
2019-01-19T16:33:03.343Z,1.40
2019-01-19T16:35:42.627Z,1.40
2019-01-19T16:38:23.490Z,1.40
2019-01-19T16:41:10.403Z,1.30
2019-01-19T16:43:42.244Z,1.30
2019-01-19T16:46:17.066Z,1.20
2019-01-19T16:48:58.532Z,1.20
2019-01-19T16:51:33.348Z,1.20
2019-01-19T16:54:11.834Z,1.10
2019-01-19T16:56:46.447Z,1.10
2019-01-19T16:59:18.207Z,1.10
2019-01-19T17:01:58.947Z,1.00
2019-01-19T17:04:42.483Z,1.00
2019-01-19T17:07:16.804Z,1.00
2019-01-19T17:09:51.112Z,1.00
2019-01-19T17:12:31.451Z,1.00
2019-01-19T17:15:11.875Z,1.00
2019-01-19T17:17:46.247Z,0.90
2019-01-19T17:20:17.933Z,0.80
2019-01-19T17:22:58.532Z,0.80
2019-01-19T17:25:42.419Z,0.80
2019-01-19T17:28:19.906Z,0.80
2019-01-19T17:31:11.232Z,0.70
2019-01-19T17:34:01.299Z,0.70
2019-01-19T17:36:38.296Z,0.80
2019-01-19T17:39:28.133Z,0.80
2019-01-19T17:41:59.774Z,0.80
2019-01-19T17:44:48.380Z,0.70
2019-01-19T17:47:28.649Z,0.70
2019-01-19T17:50:12.296Z,0.70
2019-01-19T17:52:46.791Z,0.70
2019-01-19T17:55:38.424Z,0.60
2019-01-19T17:58:30.739Z,0.50
2019-01-19T18:01:02.720Z,0.40
2019-01-19T18:03:58.928Z,0.30
2019-01-19T18:06:33.858Z,0.30
2019-01-19T18:09:15.360Z,0.30
2019-01-19T18:11:52.923Z,0.30
2019-01-19T18:14:24.855Z,0.20
2019-01-19T18:17:20.928Z,0.20
2019-01-19T18:20:18.013Z,0.20
2019-01-19T18:22:58.343Z,0.20
2019-01-19T18:25:45.150Z,0.00
2019-01-19T18:28:31.717Z,0.00
2019-01-19T18:31:25.047Z,0.00
2019-01-19T18:34:02.608Z,0.00
2019-01-19T18:36:34.340Z,0.00
2019-01-19T18:39:12.284Z,0.00
2019-01-19T18:41:46.723Z,0.00
2019-01-19T18:44:21.613Z,0.00
2019-01-19T18:47:25.388Z,0.10
2019-01-19T18:50:06.038Z,0.10
2019-01-19T18:52:49.707Z,0.10
2019-01-19T18:55:33.201Z,0.10
2019-01-19T18:58:10.948Z,0.10
2019-01-19T19:00:51.465Z,0.00
2019-01-19T19:03:35.373Z,0.00
2019-01-19T19:06:29.393Z,0.00
2019-01-19T19:09:10.071Z,0.00
2019-01-19T19:12:10.318Z,-0.10
2019-01-19T19:14:44.736Z,-0.10
2019-01-19T19:17:22.135Z,-0.10
2019-01-19T19:20:02.921Z,-0.10
2019-01-19T19:22:34.795Z,-0.20
2019-01-19T19:25:27.900Z,-0.20
2019-01-19T19:28:08.383Z,-0.10
2019-01-19T19:31:02.788Z,-0.10
2019-01-19T19:33:43.409Z,-0.10
2019-01-19T19:36:42.638Z,-0.30
2019-01-19T19:39:40.385Z,-0.30
2019-01-19T19:42:30.518Z,-0.20
2019-01-19T19:45:23.543Z,-0.20
2019-01-19T19:48:00.764Z,-0.20
2019-01-19T19:50:56.815Z,-0.20
2019-01-19T19:53:25.319Z,-0.30
2019-01-19T19:55:52.829Z,-0.30
2019-01-19T19:58:21.291Z,-0.30
2019-01-19T20:00:50.665Z,-0.30
2019-01-19T20:03:18.987Z,-0.20
2019-01-19T20:05:47.654Z,-0.30
2019-01-19T20:08:16.092Z,-0.30
2019-01-19T20:10:44.760Z,-0.30
2019-01-19T20:13:13.359Z,-0.30
2019-01-19T20:15:41.929Z,-0.30
2019-01-19T20:18:10.486Z,-0.30
2019-01-19T20:20:38.969Z,-0.40
2019-01-19T20:23:07.481Z,-0.40
2019-01-19T20:25:38.575Z,-0.40
2019-01-19T20:28:07.266Z,-0.40
2019-01-19T20:30:35.804Z,-0.50
2019-01-19T20:33:04.392Z,-0.50
2019-01-19T20:35:32.942Z,-0.50
2019-01-19T20:38:20.740Z,-0.60
2019-01-19T20:40:49.383Z,-0.60
2019-01-19T20:43:18.117Z,-0.60
2019-01-19T20:45:47.881Z,-0.60
2019-01-19T20:48:16.516Z,-0.60
2019-01-19T20:50:44.989Z,-0.70
2019-01-19T20:53:13.606Z,-0.70
2019-01-19T20:55:42.328Z,-0.70
2019-01-19T20:58:11.182Z,-0.70
2019-01-19T21:00:39.663Z,-0.70
2019-01-19T21:03:09.972Z,-0.60
2019-01-19T21:05:38.422Z,-0.50
2019-01-19T21:08:07.008Z,-0.50
2019-01-19T21:10:35.519Z,-0.50
2019-01-19T21:13:03.917Z,-0.60
2019-01-19T21:15:34.008Z,-0.60
2019-01-19T21:18:02.414Z,-0.60
2019-01-19T21:20:30.943Z,-0.60
2019-01-19T21:22:59.408Z,-0.60
2019-01-19T21:25:27.861Z,-0.70
2019-01-19T21:27:56.309Z,-0.70
2019-01-19T21:30:24.700Z,-0.70
2019-01-19T21:32:53.214Z,-0.70
2019-01-19T21:35:21.739Z,-0.70
2019-01-19T21:37:50.351Z,-0.70
2019-01-19T21:40:18.898Z,-0.70
2019-01-19T21:42:47.290Z,-0.70
2019-01-19T21:45:21.979Z,-0.80
2019-01-19T21:47:50.576Z,-0.80
2019-01-19T21:50:19.035Z,-0.90
2019-01-19T21:52:48.203Z,-1.00
2019-01-19T21:55:16.796Z,-1.10
2019-01-19T21:57:45.329Z,-1.10
2019-01-19T22:00:19.217Z,-1.00
2019-01-19T22:02:48.515Z,-1.10
2019-01-19T22:05:17.022Z,-1.10
2019-01-19T22:07:45.523Z,-1.10
2019-01-19T22:10:22.471Z,-1.10
2019-01-19T22:12:51.308Z,-1.10
2019-01-19T22:15:20.053Z,-1.00
2019-01-19T22:17:48.736Z,-1.00
2019-01-19T22:20:18.086Z,-1.00
2019-01-19T22:22:46.858Z,-1.00
2019-01-19T22:25:15.535Z,-1.00
2019-01-19T22:27:45.665Z,-1.00
2019-01-19T22:30:19.800Z,-1.00
2019-01-19T22:32:50.163Z,-1.00
2019-01-19T22:35:20.685Z,-1.10
2019-01-19T22:37:49.432Z,-1.10
2019-01-19T22:40:18.518Z,-1.10
2019-01-19T22:42:47.835Z,-1.20
2019-01-19T22:45:17.114Z,-1.20
2019-01-19T22:47:47.632Z,-1.20
2019-01-19T22:50:21.414Z,-1.30
2019-01-19T22:52:50.074Z,-1.40
2019-01-19T22:55:18.885Z,-1.40
2019-01-19T22:57:47.523Z,-1.40
2019-01-19T23:00:51.309Z,-1.40
2019-01-19T23:03:23.015Z,-1.50
2019-01-19T23:05:51.539Z,-1.60
2019-01-19T23:08:20.072Z,-1.70
2019-01-19T23:10:48.499Z,-1.60
2019-01-19T23:13:17.022Z,-1.60
2019-01-19T23:15:45.682Z,-1.60
2019-01-19T23:18:14.855Z,-1.70
2019-01-19T23:20:43.631Z,-1.60
2019-01-19T23:23:19.444Z,-1.60
2019-01-19T23:25:47.951Z,-1.50
2019-01-19T23:28:16.653Z,-1.50
2019-01-19T23:30:45.263Z,-1.50
2019-01-19T23:33:13.868Z,-1.50
2019-01-19T23:35:42.528Z,-1.40
2019-01-19T23:38:11.076Z,-1.40
2019-01-19T23:40:39.737Z,-1.60
2019-01-19T23:43:08.421Z,-1.50
2019-01-19T23:45:37.186Z,-1.50
2019-01-19T23:48:05.763Z,-1.50
2019-01-19T23:50:34.261Z,-1.60
2019-01-19T23:53:02.842Z,-1.60
2019-01-19T23:55:31.214Z,-1.70
2019-01-19T23:57:59.801Z,-1.80
